sensor_id;sensor_type;location;lat;lon;timestamp;temperature;humidity
11229;DHT22;5671;47.936;8.716;2023-12-20T00:02:21;1.60;86.80
11229;DHT22;5671;47.936;8.716;2023-12-20T00:12:11;1.70;88.10
11229;DHT22;5671;47.936;8.716;2023-12-20T00:15:04;1.70;88.40
11229;DHT22;5671;47.936;8.716;2023-12-20T00:17:46;1.70;88.00
11229;DHT22;5671;47.936;8.716;2023-12-20T00:20:16;1.70;87.40
11229;DHT22;5671;47.936;8.716;2023-12-20T00:22:58;1.70;87.40
11229;DHT22;5671;47.936;8.716;2023-12-20T00:25:25;1.80;87.40
11229;DHT22;5671;47.936;8.716;2023-12-20T00:28:08;1.80;87.60
11229;DHT22;5671;47.936;8.716;2023-12-20T00:30:50;1.80;88.00
11229;DHT22;5671;47.936;8.716;2023-12-20T00:33:50;1.80;87.90
11229;DHT22;5671;47.936;8.716;2023-12-20T00:36:56;1.80;87.80
11229;DHT22;5671;47.936;8.716;2023-12-20T00:39:47;1.80;87.80
11229;DHT22;5671;47.936;8.716;2023-12-20T00:42:16;1.80;87.50
11229;DHT22;5671;47.936;8.716;2023-12-20T00:45:03;1.80;87.30
11229;DHT22;5671;47.936;8.716;2023-12-20T00:47:42;1.80;87.30
11229;DHT22;5671;47.936;8.716;2023-12-20T00:50:18;1.80;87.30
11229;DHT22;5671;47.936;8.716;2023-12-20T00:52:59;1.80;87.70
11229;DHT22;5671;47.936;8.716;2023-12-20T00:55:38;1.80;87.60
11229;DHT22;5671;47.936;8.716;2023-12-20T00:58:18;1.80;87.70
11229;DHT22;5671;47.936;8.716;2023-12-20T01:01:02;1.90;88.00
11229;DHT22;5671;47.936;8.716;2023-12-20T01:03:49;1.90;88.00
11229;DHT22;5671;47.936;8.716;2023-12-20T01:06:29;1.90;88.00
11229;DHT22;5671;47.936;8.716;2023-12-20T01:12:36;1.90;88.30
11229;DHT22;5671;47.936;8.716;2023-12-20T01:15:19;1.90;88.60
11229;DHT22;5671;47.936;8.716;2023-12-20T01:18:06;1.90;88.70
11229;DHT22;5671;47.936;8.716;2023-12-20T01:20:44;1.90;88.70
11229;DHT22;5671;47.936;8.716;2023-12-20T01:23:21;1.90;88.70
11229;DHT22;5671;47.936;8.716;2023-12-20T01:25:49;2.00;88.80
11229;DHT22;5671;47.936;8.716;2023-12-20T01:28:16;2.00;88.90
11229;DHT22;5671;47.936;8.716;2023-12-20T01:30:49;2.00;88.90
11229;DHT22;5671;47.936;8.716;2023-12-20T01:33:17;2.00;89.00
11229;DHT22;5671;47.936;8.716;2023-12-20T01:35:44;2.10;89.40
11229;DHT22;5671;47.936;8.716;2023-12-20T01:38:11;2.10;89.50
11229;DHT22;5671;47.936;8.716;2023-12-20T01:40:38;2.10;89.40
11229;DHT22;5671;47.936;8.716;2023-12-20T01:43:08;2.10;89.60
11229;DHT22;5671;47.936;8.716;2023-12-20T01:45:37;2.20;89.60
11229;DHT22;5671;47.936;8.716;2023-12-20T01:48:06;2.20;89.70
11229;DHT22;5671;47.936;8.716;2023-12-20T01:50:36;2.20;89.80
11229;DHT22;5671;47.936;8.716;2023-12-20T01:53:04;2.30;89.90
11229;DHT22;5671;47.936;8.716;2023-12-20T01:55:37;2.30;90.00
11229;DHT22;5671;47.936;8.716;2023-12-20T01:58:06;2.30;90.10
11229;DHT22;5671;47.936;8.716;2023-12-20T02:00:33;2.40;90.10
11229;DHT22;5671;47.936;8.716;2023-12-20T02:03:03;2.40;90.00
11229;DHT22;5671;47.936;8.716;2023-12-20T02:05:30;2.40;90.10
11229;DHT22;5671;47.936;8.716;2023-12-20T02:07:59;2.40;89.90
11229;DHT22;5671;47.936;8.716;2023-12-20T02:10:26;2.50;89.90
11229;DHT22;5671;47.936;8.716;2023-12-20T02:12:54;2.50;89.90
11229;DHT22;5671;47.936;8.716;2023-12-20T02:15:21;2.50;89.90
11229;DHT22;5671;47.936;8.716;2023-12-20T02:17:49;2.50;89.90
11229;DHT22;5671;47.936;8.716;2023-12-20T02:20:16;2.60;90.10
11229;DHT22;5671;47.936;8.716;2023-12-20T02:22:44;2.60;90.10
11229;DHT22;5671;47.936;8.716;2023-12-20T02:25:11;2.60;90.10
11229;DHT22;5671;47.936;8.716;2023-12-20T02:27:39;2.70;90.10
11229;DHT22;5671;47.936;8.716;2023-12-20T02:30:06;2.70;90.10
11229;DHT22;5671;47.936;8.716;2023-12-20T02:32:33;2.70;90.10
11229;DHT22;5671;47.936;8.716;2023-12-20T02:35:00;2.70;90.00
11229;DHT22;5671;47.936;8.716;2023-12-20T02:37:27;2.70;90.00
11229;DHT22;5671;47.936;8.716;2023-12-20T02:39:55;2.80;89.90
11229;DHT22;5671;47.936;8.716;2023-12-20T02:42:22;2.80;89.90
11229;DHT22;5671;47.936;8.716;2023-12-20T02:44:49;2.80;89.90
11229;DHT22;5671;47.936;8.716;2023-12-20T02:47:16;2.80;89.70
11229;DHT22;5671;47.936;8.716;2023-12-20T02:49:42;2.80;89.80
11229;DHT22;5671;47.936;8.716;2023-12-20T02:52:09;2.80;89.90
11229;DHT22;5671;47.936;8.716;2023-12-20T02:54:36;2.80;89.90
11229;DHT22;5671;47.936;8.716;2023-12-20T02:57:05;2.90;90.20
11229;DHT22;5671;47.936;8.716;2023-12-20T02:59:32;2.90;90.30
11229;DHT22;5671;47.936;8.716;2023-12-20T03:01:59;2.90;90.50
11229;DHT22;5671;47.936;8.716;2023-12-20T03:04:26;2.90;90.50
11229;DHT22;5671;47.936;8.716;2023-12-20T03:06:53;2.90;90.60
11229;DHT22;5671;47.936;8.716;2023-12-20T03:09:20;2.90;90.40
11229;DHT22;5671;47.936;8.716;2023-12-20T03:11:46;2.90;90.60
11229;DHT22;5671;47.936;8.716;2023-12-20T03:14:15;2.90;90.70
11229;DHT22;5671;47.936;8.716;2023-12-20T03:16:42;2.90;90.90
11229;DHT22;5671;47.936;8.716;2023-12-20T03:19:13;2.90;90.90
11229;DHT22;5671;47.936;8.716;2023-12-20T03:21:43;2.90;90.80
11229;DHT22;5671;47.936;8.716;2023-12-20T03:24:23;2.90;90.70
11229;DHT22;5671;47.936;8.716;2023-12-20T03:27:18;2.90;90.60
11229;DHT22;5671;47.936;8.716;2023-12-20T03:30:02;2.90;90.80
11229;DHT22;5671;47.936;8.716;2023-12-20T03:32:32;2.90;90.70
11229;DHT22;5671;47.936;8.716;2023-12-20T03:35:24;3.00;90.80
11229;DHT22;5671;47.936;8.716;2023-12-20T03:38:01;3.00;90.70
11229;DHT22;5671;47.936;8.716;2023-12-20T03:40:39;3.00;90.50
11229;DHT22;5671;47.936;8.716;2023-12-20T03:43:25;3.00;90.20
11229;DHT22;5671;47.936;8.716;2023-12-20T03:46:10;3.00;90.20
11229;DHT22;5671;47.936;8.716;2023-12-20T03:48:44;3.00;89.90
11229;DHT22;5671;47.936;8.716;2023-12-20T03:51:22;3.10;89.80
11229;DHT22;5671;47.936;8.716;2023-12-20T03:53:57;3.00;89.60
11229;DHT22;5671;47.936;8.716;2023-12-20T03:56:28;3.10;89.40
11229;DHT22;5671;47.936;8.716;2023-12-20T03:59:03;3.00;89.50
11229;DHT22;5671;47.936;8.716;2023-12-20T04:01:44;3.10;89.60
11229;DHT22;5671;47.936;8.716;2023-12-20T04:04:17;3.10;89.60
11229;DHT22;5671;47.936;8.716;2023-12-20T04:07:06;3.10;89.50
11229;DHT22;5671;47.936;8.716;2023-12-20T04:09:40;3.00;89.80
11229;DHT22;5671;47.936;8.716;2023-12-20T04:12:26;3.00;89.70
11229;DHT22;5671;47.936;8.716;2023-12-20T04:15:10;3.00;89.60
11229;DHT22;5671;47.936;8.716;2023-12-20T04:17:54;3.00;89.60
11229;DHT22;5671;47.936;8.716;2023-12-20T04:20:26;3.00;89.50
11229;DHT22;5671;47.936;8.716;2023-12-20T04:23:00;3.00;89.60
11229;DHT22;5671;47.936;8.716;2023-12-20T04:25:43;3.00;89.60
11229;DHT22;5671;47.936;8.716;2023-12-20T04:28:12;3.00;89.50
11229;DHT22;5671;47.936;8.716;2023-12-20T04:30:42;3.00;89.30
11229;DHT22;5671;47.936;8.716;2023-12-20T04:33:22;3.00;89.20
11229;DHT22;5671;47.936;8.716;2023-12-20T04:36:15;3.00;89.10
11229;DHT22;5671;47.936;8.716;2023-12-20T04:38:56;2.90;89.00
11229;DHT22;5671;47.936;8.716;2023-12-20T04:41:36;2.90;88.90
11229;DHT22;5671;47.936;8.716;2023-12-20T04:44:26;2.90;88.70
11229;DHT22;5671;47.936;8.716;2023-12-20T04:47:16;2.90;88.60
11229;DHT22;5671;47.936;8.716;2023-12-20T04:50:24;2.90;88.60
11229;DHT22;5671;47.936;8.716;2023-12-20T04:53:30;2.90;88.50
11229;DHT22;5671;47.936;8.716;2023-12-20T04:58:14;2.90;88.70
11229;DHT22;5671;47.936;8.716;2023-12-20T05:02:08;2.80;88.40
11229;DHT22;5671;47.936;8.716;2023-12-20T05:04:46;2.80;88.50
11229;DHT22;5671;47.936;8.716;2023-12-20T05:07:37;2.80;88.40
11229;DHT22;5671;47.936;8.716;2023-12-20T05:10:41;2.80;88.20
11229;DHT22;5671;47.936;8.716;2023-12-20T05:13:31;2.80;88.10
11229;DHT22;5671;47.936;8.716;2023-12-20T05:16:15;2.80;88.20
11229;DHT22;5671;47.936;8.716;2023-12-20T05:18:52;2.70;88.70
11229;DHT22;5671;47.936;8.716;2023-12-20T05:21:19;2.70;88.40
11229;DHT22;5671;47.936;8.716;2023-12-20T05:23:47;2.70;88.50
11229;DHT22;5671;47.936;8.716;2023-12-20T05:26:14;2.70;88.40
11229;DHT22;5671;47.936;8.716;2023-12-20T05:28:40;2.70;88.20
11229;DHT22;5671;47.936;8.716;2023-12-20T05:31:20;2.70;88.20
11229;DHT22;5671;47.936;8.716;2023-12-20T05:33:59;2.70;88.40
11229;DHT22;5671;47.936;8.716;2023-12-20T05:36:26;2.70;88.50
11229;DHT22;5671;47.936;8.716;2023-12-20T05:38:55;2.60;88.40
11229;DHT22;5671;47.936;8.716;2023-12-20T05:41:22;2.60;88.50
11229;DHT22;5671;47.936;8.716;2023-12-20T05:43:49;2.60;88.70
11229;DHT22;5671;47.936;8.716;2023-12-20T05:46:16;2.60;89.00
11229;DHT22;5671;47.936;8.716;2023-12-20T05:48:53;2.60;89.00
11229;DHT22;5671;47.936;8.716;2023-12-20T05:51:22;2.60;89.20
11229;DHT22;5671;47.936;8.716;2023-12-20T05:54:11;2.60;89.00
11229;DHT22;5671;47.936;8.716;2023-12-20T06:00:12;2.60;88.90
11229;DHT22;5671;47.936;8.716;2023-12-20T06:02:43;2.50;89.00
11229;DHT22;5671;47.936;8.716;2023-12-20T06:05:10;2.50;89.00
11229;DHT22;5671;47.936;8.716;2023-12-20T06:07:37;2.50;89.00
11229;DHT22;5671;47.936;8.716;2023-12-20T06:10:06;2.50;89.10
11229;DHT22;5671;47.936;8.716;2023-12-20T06:12:33;2.50;89.10
11229;DHT22;5671;47.936;8.716;2023-12-20T06:15:03;2.50;89.20
11229;DHT22;5671;47.936;8.716;2023-12-20T06:17:31;2.50;89.20
11229;DHT22;5671;47.936;8.716;2023-12-20T06:19:58;2.40;89.30
11229;DHT22;5671;47.936;8.716;2023-12-20T06:22:25;2.40;89.30
11229;DHT22;5671;47.936;8.716;2023-12-20T06:24:52;2.40;89.30
11229;DHT22;5671;47.936;8.716;2023-12-20T06:27:20;2.40;89.30
11229;DHT22;5671;47.936;8.716;2023-12-20T06:29:47;2.40;89.30
11229;DHT22;5671;47.936;8.716;2023-12-20T06:32:14;2.40;89.40
11229;DHT22;5671;47.936;8.716;2023-12-20T06:34:41;2.40;89.40
11229;DHT22;5671;47.936;8.716;2023-12-20T06:37:08;2.30;89.40
11229;DHT22;5671;47.936;8.716;2023-12-20T06:39:35;2.40;89.50
11229;DHT22;5671;47.936;8.716;2023-12-20T06:42:02;2.40;89.50
11229;DHT22;5671;47.936;8.716;2023-12-20T06:44:30;2.40;89.50
11229;DHT22;5671;47.936;8.716;2023-12-20T06:46:57;2.30;89.60
11229;DHT22;5671;47.936;8.716;2023-12-20T06:49:24;2.30;89.60
11229;DHT22;5671;47.936;8.716;2023-12-20T06:51:51;2.30;89.70
11229;DHT22;5671;47.936;8.716;2023-12-20T06:54:18;2.30;89.80
11229;DHT22;5671;47.936;8.716;2023-12-20T06:56:45;2.30;89.80
11229;DHT22;5671;47.936;8.716;2023-12-20T06:59:12;2.30;89.80
11229;DHT22;5671;47.936;8.716;2023-12-20T07:01:40;2.30;89.90
11229;DHT22;5671;47.936;8.716;2023-12-20T07:04:08;2.30;89.90
11229;DHT22;5671;47.936;8.716;2023-12-20T07:06:35;2.30;90.00
11229;DHT22;5671;47.936;8.716;2023-12-20T07:09:01;2.30;90.10
11229;DHT22;5671;47.936;8.716;2023-12-20T07:11:28;2.30;90.20
11229;DHT22;5671;47.936;8.716;2023-12-20T07:13:55;2.30;90.10
11229;DHT22;5671;47.936;8.716;2023-12-20T07:16:22;2.30;90.10
11229;DHT22;5671;47.936;8.716;2023-12-20T07:18:51;2.30;90.10
11229;DHT22;5671;47.936;8.716;2023-12-20T07:21:18;2.20;90.10
11229;DHT22;5671;47.936;8.716;2023-12-20T07:23:45;2.20;90.10
11229;DHT22;5671;47.936;8.716;2023-12-20T07:26:12;2.30;90.10
11229;DHT22;5671;47.936;8.716;2023-12-20T07:28:39;2.20;90.20
11229;DHT22;5671;47.936;8.716;2023-12-20T07:31:06;2.20;90.30
11229;DHT22;5671;47.936;8.716;2023-12-20T07:33:33;2.20;90.30
11229;DHT22;5671;47.936;8.716;2023-12-20T07:36:01;2.20;90.40
11229;DHT22;5671;47.936;8.716;2023-12-20T07:38:28;2.20;90.40
11229;DHT22;5671;47.936;8.716;2023-12-20T07:40:54;2.20;90.50
11229;DHT22;5671;47.936;8.716;2023-12-20T07:43:21;2.20;90.60
11229;DHT22;5671;47.936;8.716;2023-12-20T07:45:48;2.20;90.70
11229;DHT22;5671;47.936;8.716;2023-12-20T07:48:15;2.20;90.80
11229;DHT22;5671;47.936;8.716;2023-12-20T07:50:42;2.20;90.90
11229;DHT22;5671;47.936;8.716;2023-12-20T07:53:10;2.20;90.90
11229;DHT22;5671;47.936;8.716;2023-12-20T07:55:37;2.20;90.90
11229;DHT22;5671;47.936;8.716;2023-12-20T07:58:04;2.30;90.90
11229;DHT22;5671;47.936;8.716;2023-12-20T08:00:31;2.30;90.80
11229;DHT22;5671;47.936;8.716;2023-12-20T08:02:58;2.30;90.80
11229;DHT22;5671;47.936;8.716;2023-12-20T08:05:25;2.30;90.90
11229;DHT22;5671;47.936;8.716;2023-12-20T08:07:52;2.30;91.00
11229;DHT22;5671;47.936;8.716;2023-12-20T08:10:20;2.30;91.10
11229;DHT22;5671;47.936;8.716;2023-12-20T08:12:47;2.40;91.10
11229;DHT22;5671;47.936;8.716;2023-12-20T08:15:13;2.40;91.20
11229;DHT22;5671;47.936;8.716;2023-12-20T08:17:40;2.40;91.30
11229;DHT22;5671;47.936;8.716;2023-12-20T08:20:08;2.40;91.40
11229;DHT22;5671;47.936;8.716;2023-12-20T08:22:34;2.40;91.40
11229;DHT22;5671;47.936;8.716;2023-12-20T08:25:01;2.40;91.50
11229;DHT22;5671;47.936;8.716;2023-12-20T08:27:30;2.40;91.50
11229;DHT22;5671;47.936;8.716;2023-12-20T08:29:57;2.50;91.50
11229;DHT22;5671;47.936;8.716;2023-12-20T08:32:25;2.50;91.40
11229;DHT22;5671;47.936;8.716;2023-12-20T08:34:52;2.50;91.50
11229;DHT22;5671;47.936;8.716;2023-12-20T08:37:19;2.50;91.40
11229;DHT22;5671;47.936;8.716;2023-12-20T08:39:46;2.60;91.40
11229;DHT22;5671;47.936;8.716;2023-12-20T08:42:13;2.60;91.50
11229;DHT22;5671;47.936;8.716;2023-12-20T08:44:41;2.60;91.30
11229;DHT22;5671;47.936;8.716;2023-12-20T08:47:08;2.60;91.20
11229;DHT22;5671;47.936;8.716;2023-12-20T08:49:38;2.70;91.00
11229;DHT22;5671;47.936;8.716;2023-12-20T08:52:05;2.70;91.00
11229;DHT22;5671;47.936;8.716;2023-12-20T08:54:32;2.70;91.00
11229;DHT22;5671;47.936;8.716;2023-12-20T08:56:59;2.70;90.90
11229;DHT22;5671;47.936;8.716;2023-12-20T08:59:26;2.70;90.80
11229;DHT22;5671;47.936;8.716;2023-12-20T09:01:54;2.70;90.90
11229;DHT22;5671;47.936;8.716;2023-12-20T09:04:21;2.80;90.90
11229;DHT22;5671;47.936;8.716;2023-12-20T09:06:48;2.80;91.10
11229;DHT22;5671;47.936;8.716;2023-12-20T09:09:15;2.80;91.20
11229;DHT22;5671;47.936;8.716;2023-12-20T09:11:42;2.80;91.30
11229;DHT22;5671;47.936;8.716;2023-12-20T09:14:11;2.80;91.00
11229;DHT22;5671;47.936;8.716;2023-12-20T09:16:38;2.90;90.80
11229;DHT22;5671;47.936;8.716;2023-12-20T09:19:06;2.90;90.70
11229;DHT22;5671;47.936;8.716;2023-12-20T09:21:33;2.90;90.60
11229;DHT22;5671;47.936;8.716;2023-12-20T09:24:00;2.90;90.40
11229;DHT22;5671;47.936;8.716;2023-12-20T09:26:27;2.90;90.00
11229;DHT22;5671;47.936;8.716;2023-12-20T09:28:53;3.00;89.90
11229;DHT22;5671;47.936;8.716;2023-12-20T09:31:20;3.00;89.80
11229;DHT22;5671;47.936;8.716;2023-12-20T09:33:47;3.00;89.80
11229;DHT22;5671;47.936;8.716;2023-12-20T09:36:15;3.10;90.10
11229;DHT22;5671;47.936;8.716;2023-12-20T09:38:42;3.10;90.10
11229;DHT22;5671;47.936;8.716;2023-12-20T09:41:09;3.10;90.10
11229;DHT22;5671;47.936;8.716;2023-12-20T09:43:37;3.20;90.20
11229;DHT22;5671;47.936;8.716;2023-12-20T09:46:06;3.20;90.40
11229;DHT22;5671;47.936;8.716;2023-12-20T09:48:33;3.20;90.40
11229;DHT22;5671;47.936;8.716;2023-12-20T09:51:01;3.30;90.50
11229;DHT22;5671;47.936;8.716;2023-12-20T09:53:29;3.30;90.60
11229;DHT22;5671;47.936;8.716;2023-12-20T09:55:58;3.40;90.90
11229;DHT22;5671;47.936;8.716;2023-12-20T09:58:25;3.50;90.80
11229;DHT22;5671;47.936;8.716;2023-12-20T10:00:53;3.50;90.80
11229;DHT22;5671;47.936;8.716;2023-12-20T10:03:24;3.50;90.90
11229;DHT22;5671;47.936;8.716;2023-12-20T10:05:52;3.60;90.80
11229;DHT22;5671;47.936;8.716;2023-12-20T10:08:21;3.60;90.80
11229;DHT22;5671;47.936;8.716;2023-12-20T10:10:50;3.60;90.50
11229;DHT22;5671;47.936;8.716;2023-12-20T10:13:17;3.70;90.20
11229;DHT22;5671;47.936;8.716;2023-12-20T10:15:43;3.70;90.50
11229;DHT22;5671;47.936;8.716;2023-12-20T10:18:12;3.80;89.50
11229;DHT22;5671;47.936;8.716;2023-12-20T10:20:40;3.80;89.90
11229;DHT22;5671;47.936;8.716;2023-12-20T10:23:08;3.80;89.20
11229;DHT22;5671;47.936;8.716;2023-12-20T10:25:35;3.80;88.70
11229;DHT22;5671;47.936;8.716;2023-12-20T10:28:14;3.80;87.60
11229;DHT22;5671;47.936;8.716;2023-12-20T10:30:43;3.70;86.20
11229;DHT22;5671;47.936;8.716;2023-12-20T10:33:10;3.70;86.80
11229;DHT22;5671;47.936;8.716;2023-12-20T10:35:38;3.70;87.10
11229;DHT22;5671;47.936;8.716;2023-12-20T10:38:06;3.70;86.90
11229;DHT22;5671;47.936;8.716;2023-12-20T10:40:35;3.70;86.70
11229;DHT22;5671;47.936;8.716;2023-12-20T10:43:03;3.70;86.50
11229;DHT22;5671;47.936;8.716;2023-12-20T10:45:32;3.60;85.30
11229;DHT22;5671;47.936;8.716;2023-12-20T10:47:58;3.60;85.00
11229;DHT22;5671;47.936;8.716;2023-12-20T10:50:27;3.60;84.10
11229;DHT22;5671;47.936;8.716;2023-12-20T10:52:54;3.50;84.30
11229;DHT22;5671;47.936;8.716;2023-12-20T10:55:22;3.50;84.10
11229;DHT22;5671;47.936;8.716;2023-12-20T10:57:49;3.50;84.10
11229;DHT22;5671;47.936;8.716;2023-12-20T11:00:18;3.40;84.20
11229;DHT22;5671;47.936;8.716;2023-12-20T11:02:49;3.40;83.60
11229;DHT22;5671;47.936;8.716;2023-12-20T11:05:25;3.30;82.20
11229;DHT22;5671;47.936;8.716;2023-12-20T11:07:59;3.30;83.50
11229;DHT22;5671;47.936;8.716;2023-12-20T11:10:31;3.30;83.00
11229;DHT22;5671;47.936;8.716;2023-12-20T11:13:05;3.20;83.60
11229;DHT22;5671;47.936;8.716;2023-12-20T11:15:35;3.20;83.80
11229;DHT22;5671;47.936;8.716;2023-12-20T11:18:04;3.20;83.80
11229;DHT22;5671;47.936;8.716;2023-12-20T11:20:36;3.20;84.30
11229;DHT22;5671;47.936;8.716;2023-12-20T11:23:04;3.20;83.80
11229;DHT22;5671;47.936;8.716;2023-12-20T11:25:46;3.20;84.00
11229;DHT22;5671;47.936;8.716;2023-12-20T11:28:14;3.10;83.40
11229;DHT22;5671;47.936;8.716;2023-12-20T11:30:46;3.10;83.10
11229;DHT22;5671;47.936;8.716;2023-12-20T11:33:15;3.10;83.30
11229;DHT22;5671;47.936;8.716;2023-12-20T11:35:42;3.10;82.20
11229;DHT22;5671;47.936;8.716;2023-12-20T11:38:09;3.10;83.50
11229;DHT22;5671;47.936;8.716;2023-12-20T11:40:37;3.10;83.40
11229;DHT22;5671;47.936;8.716;2023-12-20T11:43:04;3.10;83.30
11229;DHT22;5671;47.936;8.716;2023-12-20T11:45:31;3.10;83.70
11229;DHT22;5671;47.936;8.716;2023-12-20T11:48:00;3.10;82.40
11229;DHT22;5671;47.936;8.716;2023-12-20T11:50:29;3.10;83.00
11229;DHT22;5671;47.936;8.716;2023-12-20T11:52:56;3.10;82.50
11229;DHT22;5671;47.936;8.716;2023-12-20T11:55:23;3.10;82.30
11229;DHT22;5671;47.936;8.716;2023-12-20T11:57:50;3.10;82.60
11229;DHT22;5671;47.936;8.716;2023-12-20T12:00:18;3.10;83.20
11229;DHT22;5671;47.936;8.716;2023-12-20T12:02:55;3.10;83.80
11229;DHT22;5671;47.936;8.716;2023-12-20T12:05:23;3.10;83.50
11229;DHT22;5671;47.936;8.716;2023-12-20T12:07:51;3.20;83.00
11229;DHT22;5671;47.936;8.716;2023-12-20T12:10:18;3.10;82.30
11229;DHT22;5671;47.936;8.716;2023-12-20T12:12:45;3.20;82.30
11229;DHT22;5671;47.936;8.716;2023-12-20T12:15:12;3.20;82.10
11229;DHT22;5671;47.936;8.716;2023-12-20T12:17:39;3.20;82.00
11229;DHT22;5671;47.936;8.716;2023-12-20T12:20:07;3.20;82.00
11229;DHT22;5671;47.936;8.716;2023-12-20T12:22:35;3.20;82.30
11229;DHT22;5671;47.936;8.716;2023-12-20T12:25:11;3.30;81.90
11229;DHT22;5671;47.936;8.716;2023-12-20T12:27:40;3.30;81.40
11229;DHT22;5671;47.936;8.716;2023-12-20T12:30:08;3.30;81.30
11229;DHT22;5671;47.936;8.716;2023-12-20T12:32:36;3.30;81.30
11229;DHT22;5671;47.936;8.716;2023-12-20T12:35:03;3.40;79.90
11229;DHT22;5671;47.936;8.716;2023-12-20T12:37:33;3.40;78.00
11229;DHT22;5671;47.936;8.716;2023-12-20T12:40:00;3.40;76.90
11229;DHT22;5671;47.936;8.716;2023-12-20T12:42:28;3.40;77.90
11229;DHT22;5671;47.936;8.716;2023-12-20T12:44:55;3.40;77.40
11229;DHT22;5671;47.936;8.716;2023-12-20T12:47:22;3.40;77.00
11229;DHT22;5671;47.936;8.716;2023-12-20T12:49:51;3.40;76.60
11229;DHT22;5671;47.936;8.716;2023-12-20T12:52:18;3.30;75.90
11229;DHT22;5671;47.936;8.716;2023-12-20T12:54:45;3.30;76.60
11229;DHT22;5671;47.936;8.716;2023-12-20T12:57:13;3.30;75.80
11229;DHT22;5671;47.936;8.716;2023-12-20T12:59:41;3.30;76.10
11229;DHT22;5671;47.936;8.716;2023-12-20T13:02:09;3.30;76.00
11229;DHT22;5671;47.936;8.716;2023-12-20T13:04:36;3.30;75.80
11229;DHT22;5671;47.936;8.716;2023-12-20T13:07:03;3.30;75.50
11229;DHT22;5671;47.936;8.716;2023-12-20T13:09:30;3.20;75.90
11229;DHT22;5671;47.936;8.716;2023-12-20T13:11:57;3.10;75.10
11229;DHT22;5671;47.936;8.716;2023-12-20T13:14:24;3.10;75.60
11229;DHT22;5671;47.936;8.716;2023-12-20T13:16:52;3.00;75.60
11229;DHT22;5671;47.936;8.716;2023-12-20T13:19:19;3.00;75.90
11229;DHT22;5671;47.936;8.716;2023-12-20T13:21:46;3.00;75.70
11229;DHT22;5671;47.936;8.716;2023-12-20T13:24:14;3.00;75.60
11229;DHT22;5671;47.936;8.716;2023-12-20T13:26:41;3.00;75.30
11229;DHT22;5671;47.936;8.716;2023-12-20T13:29:07;2.90;75.10
11229;DHT22;5671;47.936;8.716;2023-12-20T13:31:34;2.90;75.40
11229;DHT22;5671;47.936;8.716;2023-12-20T13:34:04;2.90;76.20
11229;DHT22;5671;47.936;8.716;2023-12-20T13:36:31;2.80;75.30
11229;DHT22;5671;47.936;8.716;2023-12-20T13:38:57;2.80;75.60
11229;DHT22;5671;47.936;8.716;2023-12-20T13:41:24;2.80;75.60
11229;DHT22;5671;47.936;8.716;2023-12-20T13:43:51;2.70;76.00
11229;DHT22;5671;47.936;8.716;2023-12-20T13:46:18;2.70;75.40
11229;DHT22;5671;47.936;8.716;2023-12-20T13:48:45;2.70;74.70
11229;DHT22;5671;47.936;8.716;2023-12-20T13:51:13;2.60;75.00
11229;DHT22;5671;47.936;8.716;2023-12-20T13:53:40;2.60;75.50
11229;DHT22;5671;47.936;8.716;2023-12-20T13:56:07;2.60;76.90
11229;DHT22;5671;47.936;8.716;2023-12-20T13:58:33;2.60;76.30
11229;DHT22;5671;47.936;8.716;2023-12-20T14:01:00;2.60;75.80
11229;DHT22;5671;47.936;8.716;2023-12-20T14:03:27;2.60;76.20
11229;DHT22;5671;47.936;8.716;2023-12-20T14:05:54;2.60;76.40
11229;DHT22;5671;47.936;8.716;2023-12-20T14:08:23;2.60;76.30
11229;DHT22;5671;47.936;8.716;2023-12-20T14:10:49;2.50;75.80
11229;DHT22;5671;47.936;8.716;2023-12-20T14:13:16;2.50;75.60
11229;DHT22;5671;47.936;8.716;2023-12-20T14:15:43;2.50;75.60
11229;DHT22;5671;47.936;8.716;2023-12-20T14:18:10;2.50;75.50
11229;DHT22;5671;47.936;8.716;2023-12-20T14:20:38;2.50;76.00
11229;DHT22;5671;47.936;8.716;2023-12-20T14:23:05;2.50;75.80
11229;DHT22;5671;47.936;8.716;2023-12-20T14:25:33;2.50;75.90
11229;DHT22;5671;47.936;8.716;2023-12-20T14:28:02;2.40;76.00
11229;DHT22;5671;47.936;8.716;2023-12-20T14:30:29;2.40;76.10
11229;DHT22;5671;47.936;8.716;2023-12-20T14:32:56;2.40;76.50
11229;DHT22;5671;47.936;8.716;2023-12-20T14:35:24;2.40;76.60
11229;DHT22;5671;47.936;8.716;2023-12-20T14:37:50;2.40;75.70
11229;DHT22;5671;47.936;8.716;2023-12-20T14:40:18;2.40;76.20
11229;DHT22;5671;47.936;8.716;2023-12-20T14:42:47;2.40;76.90
11229;DHT22;5671;47.936;8.716;2023-12-20T14:45:14;2.40;76.80
11229;DHT22;5671;47.936;8.716;2023-12-20T14:47:41;2.40;76.90
11229;DHT22;5671;47.936;8.716;2023-12-20T14:50:09;2.40;76.70
11229;DHT22;5671;47.936;8.716;2023-12-20T14:52:37;2.40;77.10
11229;DHT22;5671;47.936;8.716;2023-12-20T14:55:04;2.30;77.30
11229;DHT22;5671;47.936;8.716;2023-12-20T14:57:33;2.30;77.60
11229;DHT22;5671;47.936;8.716;2023-12-20T15:00:01;2.30;77.50
11229;DHT22;5671;47.936;8.716;2023-12-20T15:02:28;2.30;77.70
11229;DHT22;5671;47.936;8.716;2023-12-20T15:04:56;2.30;77.40
11229;DHT22;5671;47.936;8.716;2023-12-20T15:07:23;2.30;77.20
11229;DHT22;5671;47.936;8.716;2023-12-20T15:09:50;2.30;77.30
11229;DHT22;5671;47.936;8.716;2023-12-20T15:12:17;2.20;77.40
11229;DHT22;5671;47.936;8.716;2023-12-20T15:14:43;2.20;78.00
11229;DHT22;5671;47.936;8.716;2023-12-20T15:17:12;2.10;77.90
11229;DHT22;5671;47.936;8.716;2023-12-20T15:19:39;2.10;78.10
11229;DHT22;5671;47.936;8.716;2023-12-20T15:22:08;2.10;78.00
11229;DHT22;5671;47.936;8.716;2023-12-20T15:24:36;2.10;78.00
11229;DHT22;5671;47.936;8.716;2023-12-20T15:27:06;2.10;78.10
11229;DHT22;5671;47.936;8.716;2023-12-20T15:29:33;2.00;78.00
11229;DHT22;5671;47.936;8.716;2023-12-20T15:31:59;2.00;78.20
11229;DHT22;5671;47.936;8.716;2023-12-20T15:34:28;2.00;78.30
11229;DHT22;5671;47.936;8.716;2023-12-20T15:36:55;1.90;78.20
11229;DHT22;5671;47.936;8.716;2023-12-20T15:39:21;2.00;78.10
11229;DHT22;5671;47.936;8.716;2023-12-20T15:41:48;2.00;78.00
11229;DHT22;5671;47.936;8.716;2023-12-20T15:44:16;2.00;77.50
11229;DHT22;5671;47.936;8.716;2023-12-20T15:46:43;1.90;77.60
11229;DHT22;5671;47.936;8.716;2023-12-20T15:49:09;1.90;77.50
11229;DHT22;5671;47.936;8.716;2023-12-20T15:51:38;1.90;77.60
11229;DHT22;5671;47.936;8.716;2023-12-20T15:54:05;1.90;77.50
11229;DHT22;5671;47.936;8.716;2023-12-20T15:56:33;1.90;77.50
11229;DHT22;5671;47.936;8.716;2023-12-20T15:59:02;1.90;77.40
11229;DHT22;5671;47.936;8.716;2023-12-20T16:01:29;1.90;77.20
11229;DHT22;5671;47.936;8.716;2023-12-20T16:03:56;1.90;76.70
11229;DHT22;5671;47.936;8.716;2023-12-20T16:06:23;1.90;76.80
11229;DHT22;5671;47.936;8.716;2023-12-20T16:08:51;1.80;77.00
11229;DHT22;5671;47.936;8.716;2023-12-20T16:11:20;1.90;77.70
11229;DHT22;5671;47.936;8.716;2023-12-20T16:13:47;1.80;78.30
11229;DHT22;5671;47.936;8.716;2023-12-20T16:16:16;1.80;79.00
11229;DHT22;5671;47.936;8.716;2023-12-20T16:18:43;1.80;79.90
11229;DHT22;5671;47.936;8.716;2023-12-20T16:21:09;1.80;80.20
11229;DHT22;5671;47.936;8.716;2023-12-20T16:23:36;1.70;80.10
11229;DHT22;5671;47.936;8.716;2023-12-20T16:26:05;1.70;80.50
11229;DHT22;5671;47.936;8.716;2023-12-20T16:28:31;1.70;80.30
11229;DHT22;5671;47.936;8.716;2023-12-20T16:30:58;1.70;80.40
11229;DHT22;5671;47.936;8.716;2023-12-20T16:33:25;1.70;80.60
11229;DHT22;5671;47.936;8.716;2023-12-20T16:35:52;1.70;80.80
11229;DHT22;5671;47.936;8.716;2023-12-20T16:38:21;1.70;81.00
11229;DHT22;5671;47.936;8.716;2023-12-20T16:40:48;1.60;81.10